Time;durP1;ratioP1;P1;durP2;ratioP2;P2;SDS_P1;SDS_P2;PMS_P1;PMS_P2;Temp;Humidity;BMP_temperature;BMP_pressure;BME280_temperature;BME280_humidity;BME280_pressure;Samples;Min_cycle;Max_cycle;Signal;HPM_P1;HPM_P2
2021/05/01 00:00:08;;;;;;;53.38;32.28;;;6.60;53.70;;;;;;5061230;28;21348;-65
2021/05/01 00:03:00;;;;;;;50.90;32.83;;;6.60;53.70;;;;;;5053433;28;20048;-64
2021/05/01 00:05:49;;;;;;;53.15;33.30;;;6.50;53.90;;;;;;5060154;28;20397;-63
2021/05/01 00:08:36;;;;;;;52.53;33.40;;;6.50;54.50;;;;;;5063775;28;20052;-64
2021/05/01 00:11:23;;;;;;;52.92;32.63;;;6.50;55.20;;;;;;5065807;28;20181;-63
2021/05/01 00:14:11;;;;;;;52.30;33.72;;;6.40;54.90;;;;;;5053649;28;20392;-64
2021/05/01 00:16:58;;;;;;;52.72;33.83;;;6.50;55.60;;;;;;5063163;28;20182;-63
2021/05/01 00:19:46;;;;;;;59.17;36.20;;;6.50;55.70;;;;;;5062658;28;20045;-64
2021/05/01 00:22:33;;;;;;;58.70;36.35;;;6.50;55.80;;;;;;5056293;28;20131;-63
2021/05/01 00:25:20;;;;;;;55.60;34.88;;;6.40;55.70;;;;;;5061585;28;20041;-65
2021/05/01 00:28:07;;;;;;;56.65;34.15;;;6.40;56.10;;;;;;5050996;28;20052;-63
2021/05/01 00:30:55;;;;;;;56.40;35.72;;;6.30;56.20;;;;;;5061059;28;20560;-63
2021/05/01 00:33:42;;;;;;;53.50;34.25;;;6.40;56.70;;;;;;5056320;28;20045;-64
2021/05/01 00:36:30;;;;;;;57.40;36.33;;;6.40;56.60;;;;;;5055429;28;20045;-64
2021/05/01 00:39:17;;;;;;;59.40;34.75;;;6.50;56.80;;;;;;5058797;28;20060;-64
2021/05/01 00:42:05;;;;;;;53.97;35.30;;;6.50;56.70;;;;;;5054350;28;20067;-64
2021/05/01 00:44:52;;;;;;;57.40;36.42;;;6.50;57.00;;;;;;5058067;28;20085;-64
2021/05/01 00:47:39;;;;;;;60.92;37.17;;;6.40;57.30;;;;;;5052966;28;20040;-63
2021/05/01 00:50:26;;;;;;;63.95;37.55;;;6.40;57.50;;;;;;5055306;28;20063;-62
2021/05/01 00:53:15;;;;;;;66.38;39.53;;;6.40;58.10;;;;;;5055833;28;20554;-64
2021/05/01 00:56:02;;;;;;;70.88;40.63;;;6.40;58.40;;;;;;5056896;28;20495;-63
2021/05/01 00:58:49;;;;;;;71.10;39.43;;;6.50;58.60;;;;;;5058464;28;20088;-64
2021/05/01 01:01:37;;;;;;;68.35;38.47;;;6.40;58.30;;;;;;5057312;28;20040;-64
2021/05/01 01:04:25;;;;;;;64.03;39.33;;;6.30;57.90;;;;;;5052159;28;20040;-64
2021/05/01 01:07:12;;;;;;;58.35;36.63;;;6.20;58.10;;;;;;5055387;28;20044;-64
2021/05/01 01:10:00;;;;;;;64.28;39.30;;;6.10;58.80;;;;;;5058415;28;20044;-63
2021/05/01 01:12:47;;;;;;;64.03;38.80;;;6.20;59.20;;;;;;5054016;28;20059;-65
2021/05/01 01:15:34;;;;;;;67.53;41.17;;;6.20;59.20;;;;;;5054416;28;20517;-64
2021/05/01 01:18:22;;;;;;;66.53;38.92;;;6.20;59.10;;;;;;5058691;28;20093;-66
2021/05/01 01:21:10;;;;;;;67.20;39.30;;;6.20;58.80;;;;;;5060662;28;20051;-64
2021/05/01 01:23:58;;;;;;;67.95;38.67;;;6.20;58.30;;;;;;5052983;28;20381;-64
2021/05/01 01:26:46;;;;;;;66.47;39.50;;;6.20;57.90;;;;;;5062224;28;20045;-64
2021/05/01 01:29:35;;;;;;;65.05;38.42;;;6.20;57.00;;;;;;5055789;28;20053;-65
2021/05/01 01:32:22;;;;;;;66.22;38.75;;;6.10;56.80;;;;;;5051501;28;20520;-66
2021/05/01 01:35:11;;;;;;;66.05;39.15;;;6.20;57.50;;;;;;5059436;28;20064;-66
2021/05/01 01:37:59;;;;;;;60.45;36.97;;;6.10;56.70;;;;;;5060909;28;20086;-65
2021/05/01 01:40:47;;;;;;;65.65;39.83;;;6.00;55.70;;;;;;5062809;28;20041;-66
2021/05/01 01:43:34;;;;;;;65.28;38.47;;;6.00;56.60;;;;;;5047566;28;20044;-66
2021/05/01 01:46:21;;;;;;;66.75;39.45;;;6.20;57.40;;;;;;5060441;28;20570;-66
2021/05/01 01:49:09;;;;;;;69.85;39.67;;;6.20;57.00;;;;;;5060458;28;20059;-65
2021/05/01 01:51:56;;;;;;;70.00;40.95;;;6.20;57.00;;;;;;5059467;28;20131;-65
2021/05/01 01:54:43;;;;;;;71.10;39.53;;;6.20;57.00;;;;;;5057976;28;20040;-65
2021/05/01 01:57:31;;;;;;;64.25;38.80;;;6.10;56.60;;;;;;5066023;28;20115;-66
2021/05/01 02:00:21;;;;;;;66.40;38.75;;;6.00;56.90;;;;;;5065439;28;20048;-65
2021/05/01 02:03:08;;;;;;;73.28;39.45;;;6.00;57.60;;;;;;5057552;28;20048;-65
2021/05/01 02:05:55;;;;;;;64.82;38.25;;;6.10;58.20;;;;;;5059641;28;20048;-65
2021/05/01 02:08:43;;;;;;;71.60;40.30;;;6.10;57.90;;;;;;5065509;28;20053;-65
2021/05/01 02:11:30;;;;;;;67.55;38.33;;;6.10;57.90;;;;;;5061928;28;20509;-66
2021/05/01 02:14:18;;;;;;;68.05;39.17;;;6.00;58.00;;;;;;5056688;28;20048;-66
2021/05/01 02:17:05;;;;;;;64.25;37.13;;;6.00;57.90;;;;;;5060705;28;20135;-64
2021/05/01 02:19:53;;;;;;;70.78;39.75;;;6.00;57.90;;;;;;5060422;28;20040;-65
2021/05/01 02:22:40;;;;;;;64.97;37.28;;;6.00;57.90;;;;;;5058887;28;20258;-65
2021/05/01 02:25:28;;;;;;;71.70;40.95;;;6.00;57.60;;;;;;5057801;28;20050;-66
2021/05/01 02:28:16;;;;;;;66.18;39.38;;;5.90;58.00;;;;;;5061588;28;20130;-67
2021/05/01 02:31:04;;;;;;;68.80;39.50;;;5.80;58.80;;;;;;5055076;28;20504;-66
2021/05/01 02:33:51;;;;;;;69.57;39.47;;;5.90;58.90;;;;;;5062351;28;20041;-65
2021/05/01 02:36:38;;;;;;;69.38;39.28;;;5.90;58.90;;;;;;5062724;28;20072;-65
2021/05/01 02:39:26;;;;;;;73.25;40.17;;;5.90;59.00;;;;;;5057882;28;20094;-65
2021/05/01 02:42:13;;;;;;;68.80;40.25;;;5.90;59.20;;;;;;5063718;28;20076;-65
2021/05/01 02:45:00;;;;;;;78.20;42.80;;;5.90;59.30;;;;;;5062611;28;20037;-64
2021/05/01 02:47:49;;;;;;;73.70;41.03;;;5.80;59.40;;;;;;5059083;28;20056;-65
2021/05/01 02:50:37;;;;;;;79.68;42.92;;;5.80;59.70;;;;;;5068736;28;20509;-65
2021/05/01 02:53:24;;;;;;;79.30;44.22;;;5.70;60.00;;;;;;5057357;28;20036;-65
2021/05/01 02:56:11;;;;;;;77.47;42.42;;;5.70;60.20;;;;;;5065483;28;20048;-65
2021/05/01 02:58:58;;;;;;;82.45;43.53;;;5.60;60.10;;;;;;5060511;28;20488;-65
2021/05/01 03:01:45;;;;;;;92.70;46.00;;;5.60;60.50;;;;;;5061600;28;20036;-65
2021/05/01 03:04:33;;;;;;;78.97;42.55;;;5.60;60.80;;;;;;5054653;28;20056;-65
2021/05/01 03:07:21;;;;;;;78.57;41.80;;;5.60;60.80;;;;;;5061637;28;20045;-65
2021/05/01 03:10:11;;;;;;;90.88;42.08;;;5.60;60.80;;;;;;5055313;28;20044;-66
2021/05/01 03:12:58;;;;;;;82.25;41.80;;;5.50;60.80;;;;;;5047725;28;20129;-66
2021/05/01 03:15:45;;;;;;;91.97;41.95;;;5.40;60.90;;;;;;5060444;28;20045;-65
2021/05/01 03:18:32;;;;;;;72.75;38.25;;;5.40;61.10;;;;;;5060398;28;20052;-66
2021/05/01 03:21:20;;;;;;;80.28;40.58;;;5.30;61.20;;;;;;5057991;28;20044;-64
2021/05/01 03:24:09;;;;;;;237.65;45.90;;;5.30;61.20;;;;;;5052303;28;20045;-65
2021/05/01 03:26:57;;;;;;;173.65;42.65;;;5.10;60.90;;;;;;5061522;28;20048;-65
2021/05/01 03:29:44;;;;;;;97.93;41.22;;;5.10;61.20;;;;;;5066663;28;20059;-65
2021/05/01 03:32:31;;;;;;;152.75;43.35;;;5.10;61.60;;;;;;5053432;28;20610;-64
2021/05/01 03:35:19;;;;;;;154.80;43.13;;;5.10;62.00;;;;;;5063228;28;20093;-65
2021/05/01 03:38:07;;;;;;;137.18;42.60;;;5.10;62.60;;;;;;5063339;28;20113;-64
2021/05/01 03:40:54;;;;;;;277.48;50.55;;;5.00;62.70;;;;;;5060878;28;20093;-64
2021/05/01 03:43:41;;;;;;;73.57;39.28;;;5.00;63.20;;;;;;5050202;28;20057;-65
2021/05/01 03:46:28;;;;;;;65.28;37.00;;;5.00;63.20;;;;;;5059422;28;20487;-63
2021/05/01 03:49:15;;;;;;;60.47;35.85;;;4.90;63.20;;;;;;5061010;28;20559;-66
2021/05/01 03:52:03;;;;;;;64.43;36.47;;;5.00;63.80;;;;;;5065050;28;20052;-65
2021/05/01 03:54:51;;;;;;;61.20;35.42;;;5.00;64.10;;;;;;5051496;28;20041;-65
2021/05/01 03:57:38;;;;;;;68.47;38.90;;;5.00;64.20;;;;;;5065696;28;20121;-65
2021/05/01 04:00:25;;;;;;;67.40;37.53;;;5.00;64.40;;;;;;5063656;28;20040;-65
2021/05/01 04:03:12;;;;;;;85.47;36.75;;;5.00;64.40;;;;;;5055549;28;20056;-64
2021/05/01 04:06:00;;;;;;;148.82;37.88;;;4.90;64.30;;;;;;5061384;28;20075;-65
2021/05/01 04:08:47;;;;;;;86.82;34.33;;;4.90;64.30;;;;;;5060105;28;20036;-65
2021/05/01 04:11:35;;;;;;;144.25;36.67;;;4.80;64.20;;;;;;5064716;28;20036;-64
2021/05/01 04:14:22;;;;;;;83.40;32.55;;;4.70;64.20;;;;;;5057978;28;20044;-65
2021/05/01 04:17:09;;;;;;;64.00;32.92;;;4.80;64.50;;;;;;5064569;28;20055;-65
2021/05/01 04:19:57;;;;;;;83.30;34.53;;;4.80;64.90;;;;;;5063426;28;20169;-65
2021/05/01 04:22:44;;;;;;;111.78;35.38;;;4.80;64.90;;;;;;5055798;28;20059;-65
2021/05/01 04:25:31;;;;;;;89.30;35.38;;;4.90;65.00;;;;;;5061232;28;20044;-65
2021/05/01 04:28:19;;;;;;;125.25;37.55;;;4.90;64.90;;;;;;5063162;28;20040;-65
2021/05/01 04:31:07;;;;;;;58.45;32.92;;;4.90;65.00;;;;;;5064053;28;20050;-65
2021/05/01 04:33:54;;;;;;;130.43;38.70;;;4.90;65.10;;;;;;5053859;28;20484;-65
2021/05/01 04:36:42;;;;;;;234.77;41.92;;;5.00;65.30;;;;;;5062441;28;20045;-65
2021/05/01 04:39:29;;;;;;;498.35;66.38;;;4.90;65.40;;;;;;5060574;28;20131;-65
2021/05/01 04:42:17;;;;;;;170.80;43.35;;;5.00;65.50;;;;;;5060209;28;20036;-66
2021/05/01 04:45:06;;;;;;;478.55;58.28;;;5.00;65.70;;;;;;5059522;28;20040;-64
2021/05/01 04:47:53;;;;;;;321.83;53.10;;;5.00;65.60;;;;;;5061141;28;20052;-65
2021/05/01 04:50:41;;;;;;;368.13;56.08;;;5.00;65.70;;;;;;5062449;28;20039;-66
2021/05/01 04:53:28;;;;;;;176.88;43.22;;;5.10;66.00;;;;;;5052928;28;20044;-64
2021/05/01 04:56:15;;;;;;;263.30;48.78;;;5.10;65.90;;;;;;5059913;28;20063;-64
2021/05/01 04:59:02;;;;;;;237.73;49.15;;;5.20;66.20;;;;;;5061625;28;20048;-65
2021/05/01 05:01:50;;;;;;;445.65;60.60;;;5.20;66.00;;;;;;5064742;28;20498;-65
2021/05/01 05:04:38;;;;;;;540.60;69.38;;;5.30;66.40;;;;;;5057260;28;20243;-66
2021/05/01 05:07:25;;;;;;;441.38;63.90;;;5.40;66.50;;;;;;5060151;28;20518;-66
2021/05/01 05:10:14;;;;;;;452.48;64.10;;;5.30;66.50;;;;;;5060754;28;20040;-64
2021/05/01 05:13:01;;;;;;;292.58;57.55;;;5.40;66.50;;;;;;5048773;28;20063;-65
2021/05/01 05:15:49;;;;;;;315.70;58.42;;;5.40;66.60;;;;;;5063089;28;20054;-65
2021/05/01 05:18:37;;;;;;;349.90;57.80;;;5.50;66.70;;;;;;5062200;28;20142;-65
2021/05/01 05:21:24;;;;;;;457.20;68.00;;;5.40;66.60;;;;;;5063638;28;20127;-65
2021/05/01 05:24:11;;;;;;;350.75;60.38;;;5.50;66.80;;;;;;5051674;28;20051;-65
2021/05/01 05:26:58;;;;;;;221.13;49.03;;;5.50;66.70;;;;;;5057546;28;20124;-64
2021/05/01 05:29:50;;;;;;;136.23;45.15;;;5.60;66.80;;;;;;5062136;28;20126;-65
2021/05/01 05:32:37;;;;;;;211.07;47.53;;;5.50;66.70;;;;;;5057623;28;20045;-66
2021/05/01 05:35:25;;;;;;;252.05;51.20;;;5.40;66.20;;;;;;5056550;28;20126;-65
2021/05/01 05:38:12;;;;;;;177.02;46.40;;;5.60;66.60;;;;;;5058150;28;20040;-65
2021/05/01 05:40:59;;;;;;;92.72;42.35;;;5.60;66.70;;;;;;5062765;28;20051;-66
2021/05/01 05:43:46;;;;;;;193.55;46.92;;;5.80;66.90;;;;;;5052031;28;20066;-65
2021/05/01 05:46:34;;;;;;;92.57;38.72;;;5.80;67.00;;;;;;5059699;28;20052;-66
2021/05/01 05:49:21;;;;;;;107.63;39.22;;;5.70;65.60;;;;;;5057005;28;20060;-66
2021/05/01 05:52:09;;;;;;;89.10;36.40;;;5.90;66.90;;;;;;5061262;28;20041;-65
2021/05/01 05:54:57;;;;;;;182.23;41.00;;;6.10;67.00;;;;;;5062572;28;20040;-65
2021/05/01 05:57:48;;;;;;;450.48;56.75;;;6.20;66.80;;;;;;5060704;28;20044;-64
2021/05/01 06:00:36;;;;;;;132.48;39.03;;;6.10;65.00;;;;;;5061079;28;20044;-64
2021/05/01 06:03:24;;;;;;;136.30;38.63;;;6.20;65.20;;;;;;5056280;28;20053;-64
2021/05/01 06:06:14;;;;;;;110.13;35.45;;;6.30;63.10;;;;;;5059574;28;20453;-64
2021/05/01 06:09:03;;;;;;;94.88;33.92;;;6.20;59.20;;;;;;5058027;28;20523;-65
2021/05/01 06:11:53;;;;;;;70.20;32.65;;;6.20;59.20;;;;;;5061262;28;20036;-64
2021/05/01 06:14:42;;;;;;;120.30;33.13;;;6.30;61.00;;;;;;5055513;28;21356;-64
2021/05/01 06:17:30;;;;;;;111.25;33.70;;;6.60;61.10;;;;;;5061777;28;20043;-66
2021/05/01 06:20:17;;;;;;;73.35;33.20;;;6.50;59.40;;;;;;5062205;28;20048;-66
2021/05/01 06:23:04;;;;;;;68.78;33.28;;;6.60;58.70;;;;;;5052545;28;20044;-65
2021/05/01 06:25:53;;;;;;;109.78;36.58;;;6.70;56.70;;;;;;5055399;28;20416;-65
2021/05/01 06:28:40;;;;;;;87.75;33.42;;;7.00;55.20;;;;;;5061252;28;20036;-66
2021/05/01 06:31:27;;;;;;;54.42;32.13;;;7.00;51.00;;;;;;5063190;28;20047;-66
2021/05/01 06:34:14;;;;;;;55.08;31.55;;;6.80;49.10;;;;;;5053818;28;20131;-64
2021/05/01 06:37:03;;;;;;;57.17;32.38;;;6.80;53.40;;;;;;5065813;28;20528;-64
2021/05/01 06:39:54;;;;;;;55.60;32.50;;;6.90;51.80;;;;;;5062861;28;20036;-65
2021/05/01 06:42:48;;;;;;;54.05;31.77;;;7.30;54.60;;;;;;5059973;28;20052;-66
2021/05/01 06:45:39;;;;;;;55.17;32.30;;;6.80;45.20;;;;;;5064008;28;20063;-66
2021/05/01 06:48:28;;;;;;;53.38;30.33;;;7.00;49.30;;;;;;5058798;28;20040;-65
2021/05/01 06:51:16;;;;;;;51.08;31.23;;;7.20;44.40;;;;;;5056173;28;20094;-65
2021/05/01 06:54:04;;;;;;;54.17;32.03;;;7.00;46.80;;;;;;5057901;28;20054;-66
2021/05/01 06:56:51;;;;;;;49.55;31.27;;;7.30;47.70;;;;;;5064789;28;20177;-65
2021/05/01 06:59:41;;;;;;;51.53;31.98;;;7.30;43.70;;;;;;5066592;28;20040;-64
2021/05/01 07:02:32;;;;;;;48.28;30.27;;;7.70;43.20;;;;;;5058493;28;20497;-65
2021/05/01 07:05:22;;;;;;;48.05;29.42;;;7.90;41.90;;;;;;5066022;28;20052;-65
2021/05/01 07:08:12;;;;;;;47.85;31.00;;;8.20;38.30;;;;;;5057866;28;20543;-64
2021/05/01 07:11:01;;;;;;;43.50;26.80;;;8.30;35.00;;;;;;5057838;28;20045;-65
2021/05/01 07:13:49;;;;;;;36.40;24.38;;;8.20;29.40;;;;;;5051224;28;20507;-64
2021/05/01 07:16:40;;;;;;;42.67;26.90;;;8.50;25.80;;;;;;5058896;28;20040;-64
2021/05/01 07:19:28;;;;;;;46.08;27.02;;;8.60;24.50;;;;;;5056991;28;20048;-65
2021/05/01 07:22:15;;;;;;;42.58;28.15;;;8.40;23.50;;;;;;5059607;28;20060;-64
2021/05/01 07:25:04;;;;;;;41.33;27.42;;;8.40;27.10;;;;;;5058957;28;20040;-65
2021/05/01 07:27:54;;;;;;;40.92;26.58;;;8.40;28.60;;;;;;5061573;28;20048;-66
2021/05/01 07:30:46;;;;;;;43.47;27.63;;;8.50;27.50;;;;;;5058438;28;20028;-65
2021/05/01 07:33:42;;;;;;;40.97;26.80;;;8.50;27.20;;;;;;5052120;28;20056;-65
2021/05/01 07:36:39;;;;;;;43.47;28.08;;;8.50;25.30;;;;;;5060669;28;20037;-64
2021/05/01 07:39:30;;;;;;;42.85;27.63;;;8.40;29.70;;;;;;5059903;28;20047;-66
2021/05/01 07:42:19;;;;;;;42.08;25.45;;;8.10;27.70;;;;;;5063059;28;20052;-64
2021/05/01 07:45:09;;;;;;;39.40;25.88;;;8.50;27.50;;;;;;5059784;28;20052;-65
2021/05/01 07:47:58;;;;;;;35.17;24.05;;;8.20;24.60;;;;;;5059874;28;20177;-65
2021/05/01 07:50:47;;;;;;;38.35;24.45;;;8.30;23.40;;;;;;5062503;28;20522;-65
2021/05/01 07:53:35;;;;;;;37.33;25.85;;;8.40;24.00;;;;;;5057792;28;20443;-65
2021/05/01 07:56:22;;;;;;;38.03;25.73;;;8.80;22.20;;;;;;5062297;28;20090;-65
2021/05/01 07:59:10;;;;;;;36.83;24.38;;;8.50;21.80;;;;;;5065901;28;20049;-64
2021/05/01 08:01:57;;;;;;;37.05;24.02;;;8.70;23.30;;;;;;5060874;28;20036;-64
2021/05/01 08:04:45;;;;;;;40.08;25.98;;;8.60;21.70;;;;;;5059826;28;20060;-64
2021/05/01 08:07:33;;;;;;;36.75;24.38;;;8.70;23.20;;;;;;5064192;28;20138;-66
2021/05/01 08:10:20;;;;;;;38.20;25.90;;;8.80;21.50;;;;;;5062231;28;20193;-67
2021/05/01 08:13:07;;;;;;;40.72;27.65;;;8.90;22.60;;;;;;5052170;28;20741;-67
2021/05/01 08:15:55;;;;;;;38.85;26.55;;;8.80;22.00;;;;;;5057670;28;20079;-66
2021/05/01 08:18:42;;;;;;;44.50;27.90;;;8.50;22.70;;;;;;5056655;28;20187;-65
2021/05/01 08:21:29;;;;;;;41.10;27.13;;;8.70;23.60;;;;;;5058510;28;20048;-64
2021/05/01 08:24:23;;;;;;;43.78;26.80;;;8.50;21.90;;;;;;5054820;28;20059;-65
2021/05/01 08:27:10;;;;;;;40.55;26.88;;;8.30;24.70;;;;;;5062696;28;20059;-65
2021/05/01 08:29:58;;;;;;;43.97;27.63;;;8.30;19.00;;;;;;5054260;28;20458;-65
2021/05/01 08:32:46;;;;;;;44.85;28.15;;;8.00;17.80;;;;;;5053743;28;20045;-65
2021/05/01 08:35:34;;;;;;;41.95;26.52;;;8.30;18.30;;;;;;5059251;28;20507;-66
2021/05/01 08:38:21;;;;;;;43.55;28.58;;;8.50;16.20;;;;;;5058036;28;20076;-65
2021/05/01 08:41:09;;;;;;;42.92;27.95;;;8.30;16.40;;;;;;5060748;28;20055;-66
2021/05/01 08:44:05;;;;;;;40.30;27.48;;;8.30;18.30;;;;;;5057242;28;20056;-66
2021/05/01 08:46:52;;;;;;;42.20;27.60;;;8.50;16.20;;;;;;5050767;28;20412;-65
2021/05/01 08:49:39;;;;;;;42.95;28.98;;;8.30;16.70;;;;;;5065732;28;20037;-66
2021/05/01 08:52:26;;;;;;;41.53;27.95;;;8.50;18.30;;;;;;5060310;28;20131;-65
2021/05/01 08:55:13;;;;;;;44.30;29.50;;;8.30;19.40;;;;;;5062520;28;20109;-65
2021/05/01 08:58:02;;;;;;;49.53;32.55;;;8.50;18.30;;;;;;5058014;28;20044;-65
2021/05/01 09:00:50;;;;;;;45.70;30.33;;;8.60;18.40;;;;;;5062542;28;20040;-64
2021/05/01 09:03:41;;;;;;;42.65;29.23;;;8.50;18.10;;;;;;5052947;28;20045;-65
2021/05/01 09:06:29;;;;;;;41.88;27.35;;;8.30;18.20;;;;;;5056627;28;20530;-65
2021/05/01 09:09:16;;;;;;;47.42;29.20;;;8.30;17.70;;;;;;5056849;28;20049;-64
2021/05/01 09:12:04;;;;;;;37.53;25.55;;;8.50;17.10;;;;;;5058599;28;20485;-65
2021/05/01 09:14:57;;;;;;;37.33;25.52;;;8.40;17.60;;;;;;5054486;28;20052;-64
2021/05/01 09:17:46;;;;;;;41.88;28.13;;;8.40;16.10;;;;;;5060514;28;20045;-64
2021/05/01 09:20:34;;;;;;;44.13;29.70;;;8.40;18.30;;;;;;5061978;28;20072;-64
2021/05/01 09:23:21;;;;;;;38.10;25.30;;;8.70;21.00;;;;;;5048192;28;20048;-65
2021/05/01 09:26:11;;;;;;;40.10;25.95;;;8.60;18.00;;;;;;5059080;28;20056;-66
2021/05/01 09:28:59;;;;;;;42.13;27.33;;;8.60;18.40;;;;;;5059364;28;20048;-65
2021/05/01 09:31:48;;;;;;;44.28;28.33;;;8.50;18.50;;;;;;5058614;28;20040;-65
2021/05/01 09:34:42;;;;;;;45.63;28.63;;;8.60;22.20;;;;;;5059006;28;23958;-66
2021/05/01 09:37:30;;;;;;;43.28;26.42;;;8.80;21.00;;;;;;5062620;28;20069;-65
2021/05/01 09:40:18;;;;;;;42.67;26.50;;;8.80;18.50;;;;;;5059640;28;20044;-65
2021/05/01 09:43:08;;;;;;;44.08;28.40;;;8.70;18.50;;;;;;5057417;28;20708;-65
2021/05/01 09:45:55;;;;;;;41.10;26.38;;;8.70;20.50;;;;;;5061832;28;20053;-65
2021/05/01 09:48:44;;;;;;;43.78;26.00;;;8.80;21.50;;;;;;5058756;28;20037;-65
2021/05/01 09:51:59;;;;;;;41.85;27.65;;;8.90;21.00;;;;;;5062772;28;20048;-65
2021/05/01 09:54:48;;;;;;;40.63;27.50;;;8.80;19.90;;;;;;5046197;28;20044;-64
2021/05/01 09:57:39;;;;;;;42.45;27.80;;;8.70;20.50;;;;;;5061833;28;20064;-66
2021/05/01 10:00:26;;;;;;;40.88;27.88;;;8.80;22.00;;;;;;5058366;28;20040;-65
2021/05/01 10:03:25;;;;;;;44.67;30.10;;;8.90;20.20;;;;;;5057465;28;20512;-66
2021/05/01 10:06:16;;;;;;;40.15;28.20;;;8.90;21.10;;;;;;5054923;28;20053;-66
2021/05/01 10:09:04;;;;;;;43.22;27.80;;;9.00;21.80;;;;;;5060087;28;20059;-66
2021/05/01 10:11:53;;;;;;;43.30;27.52;;;9.20;20.20;;;;;;5067688;28;20040;-65
2021/05/01 10:14:45;;;;;;;39.47;27.13;;;9.00;23.30;;;;;;5053716;28;20526;-65
2021/05/01 10:17:33;;;;;;;40.38;25.80;;;8.90;24.90;;;;;;5061982;28;20074;-65
2021/05/01 10:20:20;;;;;;;47.08;28.95;;;8.70;23.50;;;;;;5064415;28;20052;-65
2021/05/01 10:23:09;;;;;;;45.08;28.63;;;9.00;23.10;;;;;;5063284;28;20057;-66
2021/05/01 10:26:12;;;;;;;44.53;29.35;;;9.20;25.20;;;;;;5059512;28;20159;-65
2021/05/01 10:29:00;;;;;;;46.92;29.95;;;9.20;23.20;;;;;;5065621;28;20040;-66
2021/05/01 10:31:54;;;;;;;44.60;28.63;;;9.30;25.80;;;;;;5066709;28;20129;-65
2021/05/01 10:34:43;;;;;;;44.83;29.25;;;9.20;23.30;;;;;;5057418;28;20044;-66
2021/05/01 10:37:34;;;;;;;47.63;28.38;;;9.40;24.80;;;;;;5061987;28;20063;-66
2021/05/01 10:40:24;;;;;;;43.00;29.05;;;9.60;23.70;;;;;;5066664;28;20044;-66
2021/05/01 10:43:14;;;;;;;40.85;27.33;;;9.90;20.30;;;;;;5053592;28;20041;-65
2021/05/01 10:46:05;;;;;;;39.63;27.52;;;10.20;16.60;;;;;;5065608;28;20045;-64
2021/05/01 10:48:55;;;;;;;37.97;26.15;;;10.40;14.30;;;;;;5064215;28;20040;-66
2021/05/01 10:51:45;;;;;;;35.97;25.00;;;10.40;11.70;;;;;;5062311;28;20048;-67
2021/05/01 10:54:33;;;;;;;35.83;25.55;;;10.20;11.30;;;;;;5056180;28;20051;-66
2021/05/01 10:57:21;;;;;;;41.67;27.77;;;10.10;13.10;;;;;;5061020;28;20051;-65
2021/05/01 11:00:10;;;;;;;40.90;27.98;;;9.90;16.10;;;;;;5060289;28;20055;-66
2021/05/01 11:03:01;;;;;;;38.33;26.60;;;10.10;13.80;;;;;;5056690;28;20060;-66
2021/05/01 11:05:49;;;;;;;36.90;25.98;;;10.10;15.10;;;;;;5057720;28;20036;-66
2021/05/01 11:08:42;;;;;;;39.83;25.35;;;10.00;12.10;;;;;;5062384;28;20053;-66
2021/05/01 11:11:33;;;;;;;42.70;27.30;;;10.20;9.70;;;;;;5060754;28;20594;-66
2021/05/01 11:14:24;;;;;;;38.38;26.92;;;10.20;13.10;;;;;;5049581;28;20144;-65
2021/05/01 11:17:13;;;;;;;38.55;25.65;;;10.20;11.60;;;;;;5059514;28;20488;-65
2021/05/01 11:20:05;;;;;;;39.53;24.52;;;9.80;11.30;;;;;;5065694;28;20045;-68
2021/05/01 11:22:53;;;;;;;37.90;26.05;;;10.00;11.40;;;;;;5053045;28;20570;-66
2021/05/01 11:25:41;;;;;;;35.38;24.30;;;10.10;11.50;;;;;;5060006;28;20064;-65
2021/05/01 11:28:29;;;;;;;36.83;25.45;;;10.00;10.10;;;;;;5056248;28;20578;-77
2021/05/01 11:31:18;;;;;;;36.83;24.23;;;10.10;12.00;;;;;;5063647;28;20719;-63
2021/05/01 11:34:06;;;;;;;35.65;24.25;;;10.50;9.00;;;;;;5053678;28;20132;-65
2021/05/01 11:36:56;;;;;;;41.55;25.05;;;10.40;8.10;;;;;;5057565;28;20052;-63
2021/05/01 11:39:47;;;;;;;37.08;25.77;;;10.70;7.00;;;;;;5057607;28;20045;-61
2021/05/01 11:42:37;;;;;;;34.75;24.20;;;10.60;8.30;;;;;;5057464;28;20040;-61
2021/05/01 11:45:29;;;;;;;36.40;24.17;;;10.20;8.90;;;;;;5054343;28;20090;-64
2021/05/01 11:48:30;;;;;;;38.05;25.65;;;10.70;10.40;;;;;;5060678;28;20716;-60
2021/05/01 11:51:25;;;;;;;33.25;23.83;;;10.30;8.00;;;;;;5061969;28;20092;-61
2021/05/01 11:54:22;;;;;;;;;;;10.20;11.60;;;;;;5056295;28;20052;-60
2021/05/01 11:57:18;;;;;;;35.78;23.70;;;10.30;11.70;;;;;;5061240;28;20393;-61
2021/05/01 12:00:06;;;;;;;34.90;23.58;;;10.50;9.60;;;;;;5059533;28;20052;-62
2021/05/01 12:02:55;;;;;;;38.92;25.42;;;10.50;6.40;;;;;;5056341;28;20720;-61
2021/05/01 12:05:44;;;;;;;34.90;24.00;;;10.80;8.50;;;;;;5059794;28;20044;-61
2021/05/01 12:08:31;;;;;;;37.35;23.95;;;10.70;4.50;;;;;;5060003;28;20557;-65
2021/05/01 12:11:21;;;;;;;36.45;25.17;;;10.70;4.70;;;;;;5058590;28;20550;-65
2021/05/01 12:14:11;;;;;;;33.50;24.08;;;10.50;8.10;;;;;;5051264;28;20044;-66
2021/05/01 12:17:09;;;;;;;37.92;24.35;;;10.50;7.20;;;;;;5059269;28;20044;-65
2021/05/01 12:20:09;;;;;;;37.72;24.73;;;10.60;8.20;;;;;;5062307;28;20049;-66
2021/05/01 12:23:05;;;;;;;34.33;23.70;;;10.40;8.30;;;;;;5048609;28;20095;-65
2021/05/01 12:25:54;;;;;;;38.05;25.05;;;10.50;9.40;;;;;;5056333;28;20040;-66
2021/05/01 12:28:41;;;;;;;35.30;23.52;;;10.60;7.70;;;;;;5061445;28;20130;-67
2021/05/01 12:31:41;;;;;;;36.13;24.52;;;10.70;7.50;;;;;;5058379;28;20411;-66
2021/05/01 12:35:02;;;;;;;32.42;21.63;;;10.80;6.40;;;;;;5047567;28;20051;-67
2021/05/01 12:37:49;;;;;;;32.10;22.30;;;10.50;6.00;;;;;;5055220;28;20040;-66
2021/05/01 12:40:39;;;;;;;33.25;22.60;;;10.40;4.30;;;;;;5058259;28;20093;-67
2021/05/01 12:43:37;;;;;;;35.40;23.63;;;10.40;8.30;;;;;;5054584;28;20051;-66
2021/05/01 12:46:52;;;;;;;37.45;24.27;;;10.20;6.20;;;;;;5057316;28;20080;-66
2021/05/01 12:49:39;;;;;;;32.92;22.75;;;10.30;8.50;;;;;;5057929;28;20048;-65
2021/05/01 12:52:27;;;;;;;36.00;23.63;;;10.40;8.10;;;;;;5054057;28;20049;-69
2021/05/01 12:55:16;;;;;;;35.17;25.10;;;10.20;7.80;;;;;;5060602;28;20045;-66
2021/05/01 12:58:18;;;;;;;36.17;24.60;;;10.30;8.80;;;;;;5061975;28;20178;-66
2021/05/01 13:01:21;;;;;;;35.42;22.40;;;10.30;8.00;;;;;;5061079;28;20423;-66
2021/05/01 13:04:12;;;;;;;32.03;22.95;;;10.20;7.40;;;;;;5051076;28;20448;-67
2021/05/01 13:07:01;;;;;;;34.72;22.75;;;10.30;8.30;;;;;;5058562;28;20044;-67
2021/05/01 13:09:51;;;;;;;36.03;24.20;;;10.10;8.00;;;;;;5062807;28;20048;-65
2021/05/01 13:12:57;;;;;;;34.38;22.70;;;10.20;8.20;;;;;;5053152;28;20045;-67
2021/05/01 13:16:09;;;;;;;32.92;22.75;;;10.20;8.60;;;;;;5058160;28;20114;-65
2021/05/01 13:19:09;;;;;;;35.20;24.33;;;10.50;9.40;;;;;;5060022;28;20090;-66
2021/05/01 13:21:59;;;;;;;31.42;21.95;;;10.50;8.10;;;;;;5055482;28;20116;-65
2021/05/01 13:24:55;;;;;;;30.95;21.65;;;10.40;9.70;;;;;;5056739;28;20063;-65
2021/05/01 13:27:47;;;;;;;32.38;22.48;;;10.30;8.40;;;;;;5062019;28;20041;-64
2021/05/01 13:30:35;;;;;;;32.90;23.30;;;10.30;9.40;;;;;;5053605;28;20128;-65
2021/05/01 13:33:23;;;;;;;34.45;22.95;;;10.40;10.20;;;;;;5055506;28;20045;-65
2021/05/01 13:36:13;;;;;;;31.80;23.15;;;10.40;8.80;;;;;;5059541;28;20048;-65
2021/05/01 13:39:01;;;;;;;32.20;22.08;;;10.40;11.00;;;;;;5053599;28;20110;-65
2021/05/01 13:42:05;;;;;;;33.83;22.80;;;10.40;9.70;;;;;;5051236;28;20059;-65
2021/05/01 13:44:54;;;;;;;34.22;21.80;;;10.30;8.20;;;;;;5048734;28;20044;-65
2021/05/01 13:47:46;;;;;;;31.13;22.10;;;10.40;9.90;;;;;;5061323;28;20121;-65
2021/05/01 13:50:42;;;;;;;32.33;21.67;;;10.40;10.10;;;;;;5058230;28;20111;-63
2021/05/01 13:53:29;;;;;;;35.30;23.75;;;10.30;9.70;;;;;;5056674;28;20504;-62
2021/05/01 13:56:25;;;;;;;33.72;22.02;;;10.40;13.80;;;;;;5062270;28;20054;-64
2021/05/01 13:59:25;;;;;;;31.38;21.75;;;10.40;11.70;;;;;;5060507;28;20055;-65
2021/05/01 14:02:16;;;;;;;31.30;20.35;;;10.60;10.80;;;;;;5053451;28;20052;-66
2021/05/01 14:05:05;;;;;;;29.63;20.55;;;10.60;8.40;;;;;;5056855;28;20039;-66
2021/05/01 14:07:55;;;;;;;33.65;23.23;;;10.50;9.10;;;;;;5058764;28;20652;-65
2021/05/01 14:10:43;;;;;;;31.52;22.35;;;10.70;10.20;;;;;;5058871;28;20052;-66
2021/05/01 14:13:32;;;;;;;30.45;22.15;;;10.70;11.90;;;;;;5046270;28;20041;-65
2021/05/01 14:16:20;;;;;;;30.35;22.08;;;10.60;10.20;;;;;;5057301;28;20048;-64
2021/05/01 14:19:18;;;;;;;32.35;21.95;;;10.60;11.20;;;;;;5056264;28;20143;-65
2021/05/01 14:22:11;;;;;;;34.05;21.55;;;10.60;11.80;;;;;;5058104;28;20551;-65
2021/05/01 14:25:04;;;;;;;34.65;23.23;;;10.60;9.70;;;;;;5056261;28;20183;-65
2021/05/01 14:27:52;;;;;;;31.40;23.25;;;10.50;11.10;;;;;;5057162;28;20127;-64